sensor_id;sensor_type;location;lat;lon;timestamp;P1;durP1;ratioP1;P2;durP2;ratioP2
53594;SDS011;39479;45.720;11.310;2024-02-28T00:01:53;3.05;;;1.35;;
53594;SDS011;39479;45.720;11.310;2024-02-28T00:04:19;1.27;;;1.00;;
53594;SDS011;39479;45.720;11.310;2024-02-28T00:06:45;2.50;;;2.30;;
53594;SDS011;39479;45.720;11.310;2024-02-28T00:09:11;3.92;;;3.47;;
53594;SDS011;39479;45.720;11.310;2024-02-28T00:11:44;4.57;;;3.70;;
53594;SDS011;39479;45.720;11.310;2024-02-28T00:14:11;2.95;;;2.65;;
53594;SDS011;39479;45.720;11.310;2024-02-28T00:16:40;1.30;;;1.20;;
53594;SDS011;39479;45.720;11.310;2024-02-28T00:19:07;1.48;;;1.38;;
53594;SDS011;39479;45.720;11.310;2024-02-28T00:21:33;3.03;;;2.30;;
53594;SDS011;39479;45.720;11.310;2024-02-28T00:23:59;2.47;;;2.28;;
53594;SDS011;39479;45.720;11.310;2024-02-28T00:26:25;1.80;;;1.70;;
53594;SDS011;39479;45.720;11.310;2024-02-28T00:28:51;1.55;;;1.42;;
53594;SDS011;39479;45.720;11.310;2024-02-28T00:31:18;1.52;;;1.42;;
53594;SDS011;39479;45.720;11.310;2024-02-28T00:33:46;1.30;;;1.30;;
53594;SDS011;39479;45.720;11.310;2024-02-28T00:36:13;1.13;;;1.13;;
53594;SDS011;39479;45.720;11.310;2024-02-28T00:38:40;1.42;;;1.05;;
53594;SDS011;39479;45.720;11.310;2024-02-28T00:41:06;1.60;;;1.00;;
53594;SDS011;39479;45.720;11.310;2024-02-28T00:43:32;1.45;;;0.90;;
53594;SDS011;39479;45.720;11.310;2024-02-28T00:45:58;0.65;;;0.65;;
53594;SDS011;39479;45.720;11.310;2024-02-28T00:48:25;2.30;;;0.90;;
53594;SDS011;39479;45.720;11.310;2024-02-28T00:50:51;1.00;;;0.90;;
53594;SDS011;39479;45.720;11.310;2024-02-28T00:53:18;2.25;;;2.08;;
53594;SDS011;39479;45.720;11.310;2024-02-28T00:55:44;3.40;;;2.00;;
53594;SDS011;39479;45.720;11.310;2024-02-28T00:58:10;0.90;;;0.90;;
53594;SDS011;39479;45.720;11.310;2024-02-28T01:00:36;2.08;;;0.63;;
53594;SDS011;39479;45.720;11.310;2024-02-28T01:03:03;0.52;;;0.52;;
53594;SDS011;39479;45.720;11.310;2024-02-28T01:05:30;0.85;;;0.70;;
53594;SDS011;39479;45.720;11.310;2024-02-28T01:07:56;0.90;;;0.63;;
53594;SDS011;39479;45.720;11.310;2024-02-28T01:10:22;0.93;;;0.75;;
53594;SDS011;39479;45.720;11.310;2024-02-28T01:12:48;0.75;;;0.60;;
53594;SDS011;39479;45.720;11.310;2024-02-28T01:15:14;0.90;;;0.90;;
53594;SDS011;39479;45.720;11.310;2024-02-28T01:17:40;1.30;;;1.30;;
53594;SDS011;39479;45.720;11.310;2024-02-28T01:20:06;0.82;;;0.82;;
53594;SDS011;39479;45.720;11.310;2024-02-28T01:22:33;0.63;;;0.60;;
53594;SDS011;39479;45.720;11.310;2024-02-28T01:25:00;0.75;;;0.75;;
53594;SDS011;39479;45.720;11.310;2024-02-28T01:27:26;0.95;;;0.90;;
53594;SDS011;39479;45.720;11.310;2024-02-28T01:29:52;0.85;;;0.85;;
53594;SDS011;39479;45.720;11.310;2024-02-28T01:32:19;0.93;;;0.93;;
53594;SDS011;39479;45.720;11.310;2024-02-28T01:34:45;0.85;;;0.70;;
53594;SDS011;39479;45.720;11.310;2024-02-28T01:37:11;0.40;;;0.40;;
53594;SDS011;39479;45.720;11.310;2024-02-28T01:39:37;0.85;;;0.75;;
53594;SDS011;39479;45.720;11.310;2024-02-28T01:42:03;0.90;;;0.65;;
53594;SDS011;39479;45.720;11.310;2024-02-28T01:44:30;0.55;;;0.55;;
53594;SDS011;39479;45.720;11.310;2024-02-28T01:46:56;0.60;;;0.60;;
53594;SDS011;39479;45.720;11.310;2024-02-28T01:49:23;0.40;;;0.40;;
53594;SDS011;39479;45.720;11.310;2024-02-28T01:51:49;0.30;;;0.30;;
53594;SDS011;39479;45.720;11.310;2024-02-28T01:54:16;1.77;;;0.70;;
53594;SDS011;39479;45.720;11.310;2024-02-28T01:56:43;0.43;;;0.43;;
53594;SDS011;39479;45.720;11.310;2024-02-28T01:59:10;0.40;;;0.40;;
53594;SDS011;39479;45.720;11.310;2024-02-28T02:01:37;1.08;;;0.60;;
53594;SDS011;39479;45.720;11.310;2024-02-28T02:04:03;0.85;;;0.85;;
53594;SDS011;39479;45.720;11.310;2024-02-28T02:06:30;0.75;;;0.60;;
53594;SDS011;39479;45.720;11.310;2024-02-28T02:08:57;0.95;;;0.77;;
53594;SDS011;39479;45.720;11.310;2024-02-28T02:11:23;0.52;;;0.40;;
53594;SDS011;39479;45.720;11.310;2024-02-28T02:13:53;1.52;;;1.25;;
53594;SDS011;39479;45.720;11.310;2024-02-28T02:16:19;1.60;;;1.50;;
53594;SDS011;39479;45.720;11.310;2024-02-28T02:18:51;2.38;;;1.35;;
53594;SDS011;39479;45.720;11.310;2024-02-28T02:21:22;1.63;;;1.42;;
53594;SDS011;39479;45.720;11.310;2024-02-28T02:23:49;1.10;;;1.00;;
53594;SDS011;39479;45.720;11.310;2024-02-28T02:26:15;0.70;;;0.70;;
53594;SDS011;39479;45.720;11.310;2024-02-28T02:28:42;0.75;;;0.50;;
53594;SDS011;39479;45.720;11.310;2024-02-28T02:31:08;0.40;;;0.40;;
53594;SDS011;39479;45.720;11.310;2024-02-28T02:33:34;0.60;;;0.60;;
53594;SDS011;39479;45.720;11.310;2024-02-28T02:36:00;0.30;;;0.30;;
53594;SDS011;39479;45.720;11.310;2024-02-28T02:38:26;0.30;;;0.30;;
53594;SDS011;39479;45.720;11.310;2024-02-28T02:40:52;0.55;;;0.40;;
53594;SDS011;39479;45.720;11.310;2024-02-28T02:43:19;1.35;;;0.75;;
53594;SDS011;39479;45.720;11.310;2024-02-28T02:45:45;0.68;;;0.68;;
53594;SDS011;39479;45.720;11.310;2024-02-28T02:48:11;2.63;;;0.88;;
53594;SDS011;39479;45.720;11.310;2024-02-28T02:50:37;0.70;;;0.70;;
53594;SDS011;39479;45.720;11.310;2024-02-28T02:53:04;0.73;;;0.73;;
53594;SDS011;39479;45.720;11.310;2024-02-28T02:55:30;1.58;;;1.20;;
53594;SDS011;39479;45.720;11.310;2024-02-28T02:57:56;1.35;;;1.25;;
53594;SDS011;39479;45.720;11.310;2024-02-28T03:00:22;2.33;;;1.60;;
53594;SDS011;39479;45.720;11.310;2024-02-28T03:02:49;0.43;;;0.30;;
53594;SDS011;39479;45.720;11.310;2024-02-28T03:05:15;2.28;;;0.68;;
53594;SDS011;39479;45.720;11.310;2024-02-28T03:07:41;1.55;;;0.75;;
53594;SDS011;39479;45.720;11.310;2024-02-28T03:10:07;0.50;;;0.50;;
53594;SDS011;39479;45.720;11.310;2024-02-28T03:12:36;0.28;;;0.28;;
53594;SDS011;39479;45.720;11.310;2024-02-28T03:15:02;0.80;;;0.80;;
53594;SDS011;39479;45.720;11.310;2024-02-28T03:17:28;1.33;;;1.23;;
53594;SDS011;39479;45.720;11.310;2024-02-28T03:19:55;0.40;;;0.40;;
53594;SDS011;39479;45.720;11.310;2024-02-28T03:22:21;1.38;;;0.60;;
53594;SDS011;39479;45.720;11.310;2024-02-28T03:24:47;0.68;;;0.47;;
53594;SDS011;39479;45.720;11.310;2024-02-28T03:27:14;1.00;;;1.00;;
53594;SDS011;39479;45.720;11.310;2024-02-28T03:29:41;0.65;;;0.65;;
53594;SDS011;39479;45.720;11.310;2024-02-28T03:32:07;2.70;;;0.80;;
53594;SDS011;39479;45.720;11.310;2024-02-28T03:34:33;0.88;;;0.80;;
53594;SDS011;39479;45.720;11.310;2024-02-28T03:36:59;0.63;;;0.63;;
53594;SDS011;39479;45.720;11.310;2024-02-28T03:39:25;0.30;;;0.30;;
53594;SDS011;39479;45.720;11.310;2024-02-28T03:41:52;0.68;;;0.68;;
53594;SDS011;39479;45.720;11.310;2024-02-28T03:44:18;1.20;;;1.20;;
53594;SDS011;39479;45.720;11.310;2024-02-28T03:46:44;1.35;;;1.25;;
53594;SDS011;39479;45.720;11.310;2024-02-28T03:49:10;1.40;;;1.40;;
53594;SDS011;39479;45.720;11.310;2024-02-28T03:51:40;2.67;;;1.30;;
53594;SDS011;39479;45.720;11.310;2024-02-28T03:54:06;1.10;;;1.00;;
53594;SDS011;39479;45.720;11.310;2024-02-28T03:56:32;1.13;;;0.63;;
53594;SDS011;39479;45.720;11.310;2024-02-28T03:59:00;1.70;;;0.90;;
53594;SDS011;39479;45.720;11.310;2024-02-28T04:01:26;3.25;;;0.85;;
53594;SDS011;39479;45.720;11.310;2024-02-28T04:03:52;0.82;;;0.70;;
53594;SDS011;39479;45.720;11.310;2024-02-28T04:06:19;0.30;;;0.30;;
53594;SDS011;39479;45.720;11.310;2024-02-28T04:08:45;0.40;;;0.40;;
53594;SDS011;39479;45.720;11.310;2024-02-28T04:11:11;0.82;;;0.75;;
53594;SDS011;39479;45.720;11.310;2024-02-28T04:13:37;0.60;;;0.60;;
53594;SDS011;39479;45.720;11.310;2024-02-28T04:16:03;0.98;;;0.65;;
53594;SDS011;39479;45.720;11.310;2024-02-28T04:18:29;0.60;;;0.60;;
53594;SDS011;39479;45.720;11.310;2024-02-28T04:20:55;1.05;;;0.70;;
53594;SDS011;39479;45.720;11.310;2024-02-28T04:23:22;0.80;;;0.80;;
53594;SDS011;39479;45.720;11.310;2024-02-28T04:25:48;0.60;;;0.57;;
53594;SDS011;39479;45.720;11.310;2024-02-28T04:28:14;2.58;;;0.80;;
53594;SDS011;39479;45.720;11.310;2024-02-28T04:30:40;2.20;;;0.75;;
53594;SDS011;39479;45.720;11.310;2024-02-28T04:33:06;0.90;;;0.80;;
53594;SDS011;39479;45.720;11.310;2024-02-28T04:35:32;2.80;;;1.20;;
53594;SDS011;39479;45.720;11.310;2024-02-28T04:37:59;0.95;;;0.95;;
53594;SDS011;39479;45.720;11.310;2024-02-28T04:40:25;2.53;;;1.77;;
53594;SDS011;39479;45.720;11.310;2024-02-28T04:42:51;2.33;;;1.33;;
53594;SDS011;39479;45.720;11.310;2024-02-28T04:45:17;3.38;;;2.20;;
53594;SDS011;39479;45.720;11.310;2024-02-28T04:47:44;6.63;;;4.18;;
53594;SDS011;39479;45.720;11.310;2024-02-28T04:50:10;6.20;;;3.83;;
53594;SDS011;39479;45.720;11.310;2024-02-28T04:52:36;1.67;;;1.40;;
53594;SDS011;39479;45.720;11.310;2024-02-28T04:55:03;1.85;;;1.45;;
53594;SDS011;39479;45.720;11.310;2024-02-28T04:57:29;2.50;;;1.50;;
53594;SDS011;39479;45.720;11.310;2024-02-28T04:59:55;1.20;;;1.10;;
53594;SDS011;39479;45.720;11.310;2024-02-28T05:02:21;1.80;;;1.67;;
53594;SDS011;39479;45.720;11.310;2024-02-28T05:04:49;2.05;;;1.90;;
53594;SDS011;39479;45.720;11.310;2024-02-28T05:07:15;1.60;;;1.50;;
53594;SDS011;39479;45.720;11.310;2024-02-28T05:09:41;1.38;;;1.17;;
53594;SDS011;39479;45.720;11.310;2024-02-28T05:12:08;2.63;;;1.35;;
53594;SDS011;39479;45.720;11.310;2024-02-28T05:14:34;3.75;;;1.42;;
53594;SDS011;39479;45.720;11.310;2024-02-28T05:17:00;1.17;;;1.17;;
53594;SDS011;39479;45.720;11.310;2024-02-28T05:19:26;0.82;;;0.77;;
53594;SDS011;39479;45.720;11.310;2024-02-28T05:21:52;1.70;;;1.13;;
53594;SDS011;39479;45.720;11.310;2024-02-28T05:24:18;1.08;;;0.80;;
53594;SDS011;39479;45.720;11.310;2024-02-28T05:26:44;0.63;;;0.60;;
53594;SDS011;39479;45.720;11.310;2024-02-28T05:29:10;1.58;;;1.05;;
53594;SDS011;39479;45.720;11.310;2024-02-28T05:31:37;1.90;;;0.70;;
53594;SDS011;39479;45.720;11.310;2024-02-28T05:34:03;3.63;;;0.93;;
53594;SDS011;39479;45.720;11.310;2024-02-28T05:36:30;1.70;;;1.30;;
53594;SDS011;39479;45.720;11.310;2024-02-28T05:38:57;1.60;;;1.50;;
53594;SDS011;39479;45.720;11.310;2024-02-28T05:41:24;3.60;;;2.53;;
53594;SDS011;39479;45.720;11.310;2024-02-28T05:43:50;1.50;;;1.27;;
53594;SDS011;39479;45.720;11.310;2024-02-28T05:46:16;2.28;;;1.42;;
53594;SDS011;39479;45.720;11.310;2024-02-28T05:48:43;0.82;;;0.82;;
53594;SDS011;39479;45.720;11.310;2024-02-28T05:51:10;0.57;;;0.57;;
53594;SDS011;39479;45.720;11.310;2024-02-28T05:53:36;0.60;;;0.60;;
53594;SDS011;39479;45.720;11.310;2024-02-28T05:56:03;2.08;;;1.02;;
53594;SDS011;39479;45.720;11.310;2024-02-28T05:58:30;0.32;;;0.32;;
53594;SDS011;39479;45.720;11.310;2024-02-28T06:00:56;1.58;;;1.10;;
53594;SDS011;39479;45.720;11.310;2024-02-28T06:03:22;1.17;;;0.68;;
53594;SDS011;39479;45.720;11.310;2024-02-28T06:05:48;0.63;;;0.63;;
53594;SDS011;39479;45.720;11.310;2024-02-28T06:08:14;0.57;;;0.57;;
53594;SDS011;39479;45.720;11.310;2024-02-28T06:10:41;0.57;;;0.40;;
53594;SDS011;39479;45.720;11.310;2024-02-28T06:13:11;0.95;;;0.70;;
53594;SDS011;39479;45.720;11.310;2024-02-28T06:15:38;4.28;;;2.50;;
53594;SDS011;39479;45.720;11.310;2024-02-28T06:18:04;1.80;;;1.15;;
53594;SDS011;39479;45.720;11.310;2024-02-28T06:20:31;1.08;;;1.02;;
53594;SDS011;39479;45.720;11.310;2024-02-28T06:22:58;1.00;;;1.00;;
53594;SDS011;39479;45.720;11.310;2024-02-28T06:25:25;0.63;;;0.55;;
53594;SDS011;39479;45.720;11.310;2024-02-28T06:27:53;0.70;;;0.70;;
53594;SDS011;39479;45.720;11.310;2024-02-28T06:30:19;1.33;;;1.15;;
53594;SDS011;39479;45.720;11.310;2024-02-28T06:32:45;0.60;;;0.60;;
53594;SDS011;39479;45.720;11.310;2024-02-28T06:35:11;2.95;;;2.55;;
53594;SDS011;39479;45.720;11.310;2024-02-28T06:37:37;2.15;;;1.65;;
53594;SDS011;39479;45.720;11.310;2024-02-28T06:40:03;1.05;;;1.02;;
53594;SDS011;39479;45.720;11.310;2024-02-28T06:42:30;2.67;;;1.50;;
53594;SDS011;39479;45.720;11.310;2024-02-28T06:44:56;2.40;;;2.10;;
53594;SDS011;39479;45.720;11.310;2024-02-28T06:47:22;3.03;;;2.45;;
53594;SDS011;39479;45.720;11.310;2024-02-28T06:49:48;2.10;;;1.90;;
53594;SDS011;39479;45.720;11.310;2024-02-28T06:52:14;3.85;;;2.75;;
53594;SDS011;39479;45.720;11.310;2024-02-28T06:54:40;6.57;;;4.65;;
53594;SDS011;39479;45.720;11.310;2024-02-28T06:57:06;4.05;;;3.13;;
53594;SDS011;39479;45.720;11.310;2024-02-28T06:59:32;3.35;;;3.00;;
53594;SDS011;39479;45.720;11.310;2024-02-28T07:01:58;3.28;;;2.65;;
53594;SDS011;39479;45.720;11.310;2024-02-28T07:04:24;3.13;;;2.80;;
53594;SDS011;39479;45.720;11.310;2024-02-28T07:06:51;2.60;;;2.10;;
53594;SDS011;39479;45.720;11.310;2024-02-28T07:09:17;4.22;;;3.40;;
53594;SDS011;39479;45.720;11.310;2024-02-28T07:11:43;3.55;;;3.25;;
53594;SDS011;39479;45.720;11.310;2024-02-28T07:14:09;4.07;;;2.90;;
53594;SDS011;39479;45.720;11.310;2024-02-28T07:16:35;4.88;;;3.47;;
53594;SDS011;39479;45.720;11.310;2024-02-28T07:19:01;4.40;;;3.33;;
53594;SDS011;39479;45.720;11.310;2024-02-28T07:21:27;5.95;;;3.45;;
53594;SDS011;39479;45.720;11.310;2024-02-28T07:23:53;6.18;;;3.97;;
53594;SDS011;39479;45.720;11.310;2024-02-28T07:26:19;7.15;;;4.80;;
53594;SDS011;39479;45.720;11.310;2024-02-28T07:28:45;6.35;;;4.65;;
53594;SDS011;39479;45.720;11.310;2024-02-28T07:31:18;6.32;;;4.18;;
53594;SDS011;39479;45.720;11.310;2024-02-28T07:33:44;5.50;;;4.13;;
53594;SDS011;39479;45.720;11.310;2024-02-28T07:36:10;5.93;;;4.60;;
53594;SDS011;39479;45.720;11.310;2024-02-28T07:38:37;5.28;;;4.57;;
53594;SDS011;39479;45.720;11.310;2024-02-28T07:41:03;6.07;;;4.35;;
53594;SDS011;39479;45.720;11.310;2024-02-28T07:43:29;7.18;;;4.20;;
53594;SDS011;39479;45.720;11.310;2024-02-28T07:45:58;4.65;;;3.63;;
53594;SDS011;39479;45.720;11.310;2024-02-28T07:48:24;6.32;;;4.13;;
53594;SDS011;39479;45.720;11.310;2024-02-28T07:50:50;9.70;;;4.45;;
53594;SDS011;39479;45.720;11.310;2024-02-28T07:53:19;6.03;;;3.15;;
53594;SDS011;39479;45.720;11.310;2024-02-28T07:55:45;3.83;;;3.30;;
53594;SDS011;39479;45.720;11.310;2024-02-28T07:58:11;3.95;;;3.55;;
53594;SDS011;39479;45.720;11.310;2024-02-28T08:00:37;7.57;;;3.90;;
53594;SDS011;39479;45.720;11.310;2024-02-28T08:03:03;5.53;;;4.22;;
53594;SDS011;39479;45.720;11.310;2024-02-28T08:05:29;5.05;;;3.70;;
53594;SDS011;39479;45.720;11.310;2024-02-28T08:07:57;4.78;;;3.95;;
53594;SDS011;39479;45.720;11.310;2024-02-28T08:10:23;5.80;;;4.10;;
53594;SDS011;39479;45.720;11.310;2024-02-28T08:12:49;7.03;;;5.05;;
53594;SDS011;39479;45.720;11.310;2024-02-28T08:15:15;7.07;;;5.25;;
53594;SDS011;39479;45.720;11.310;2024-02-28T08:17:41;6.60;;;4.95;;
53594;SDS011;39479;45.720;11.310;2024-02-28T08:20:07;5.32;;;4.45;;
53594;SDS011;39479;45.720;11.310;2024-02-28T08:22:33;6.80;;;4.72;;
53594;SDS011;39479;45.720;11.310;2024-02-28T08:24:59;7.55;;;5.18;;
53594;SDS011;39479;45.720;11.310;2024-02-28T08:27:25;7.90;;;5.72;;
53594;SDS011;39479;45.720;11.310;2024-02-28T08:29:51;10.50;;;5.85;;
53594;SDS011;39479;45.720;11.310;2024-02-28T08:32:17;9.63;;;6.05;;
53594;SDS011;39479;45.720;11.310;2024-02-28T08:34:44;7.80;;;5.18;;
53594;SDS011;39479;45.720;11.310;2024-02-28T08:37:11;7.45;;;5.07;;
53594;SDS011;39479;45.720;11.310;2024-02-28T08:39:37;6.47;;;4.78;;
53594;SDS011;39479;45.720;11.310;2024-02-28T08:42:03;5.93;;;4.60;;
53594;SDS011;39479;45.720;11.310;2024-02-28T08:44:30;4.90;;;3.90;;
53594;SDS011;39479;45.720;11.310;2024-02-28T08:46:56;6.03;;;5.40;;
53594;SDS011;39479;45.720;11.310;2024-02-28T08:49:22;8.73;;;5.60;;
53594;SDS011;39479;45.720;11.310;2024-02-28T08:51:48;9.77;;;6.07;;
53594;SDS011;39479;45.720;11.310;2024-02-28T08:54:14;11.65;;;6.10;;
53594;SDS011;39479;45.720;11.310;2024-02-28T08:56:40;10.18;;;6.38;;
53594;SDS011;39479;45.720;11.310;2024-02-28T08:59:06;8.10;;;6.47;;
53594;SDS011;39479;45.720;11.310;2024-02-28T09:01:32;6.90;;;5.85;;
53594;SDS011;39479;45.720;11.310;2024-02-28T09:03:59;7.82;;;5.78;;
53594;SDS011;39479;45.720;11.310;2024-02-28T09:06:25;10.60;;;6.60;;
53594;SDS011;39479;45.720;11.310;2024-02-28T09:08:52;9.15;;;6.57;;
53594;SDS011;39479;45.720;11.310;2024-02-28T09:11:18;7.32;;;5.28;;
53594;SDS011;39479;45.720;11.310;2024-02-28T09:13:44;5.70;;;4.65;;
53594;SDS011;39479;45.720;11.310;2024-02-28T09:16:10;9.25;;;6.10;;
53594;SDS011;39479;45.720;11.310;2024-02-28T09:18:36;10.10;;;6.53;;
53594;SDS011;39479;45.720;11.310;2024-02-28T09:21:02;8.65;;;6.40;;
53594;SDS011;39479;45.720;11.310;2024-02-28T09:23:28;8.13;;;6.53;;
53594;SDS011;39479;45.720;11.310;2024-02-28T09:25:55;9.02;;;7.95;;
53594;SDS011;39479;45.720;11.310;2024-02-28T09:28:21;55.38;;;33.78;;
53594;SDS011;39479;45.720;11.310;2024-02-28T09:30:47;17.30;;;13.75;;
53594;SDS011;39479;45.720;11.310;2024-02-28T09:33:15;9.02;;;7.57;;
53594;SDS011;39479;45.720;11.310;2024-02-28T09:35:44;8.40;;;7.22;;
53594;SDS011;39479;45.720;11.310;2024-02-28T09:38:10;7.97;;;6.20;;
53594;SDS011;39479;45.720;11.310;2024-02-28T09:40:36;6.35;;;4.90;;
53594;SDS011;39479;45.720;11.310;2024-02-28T09:43:03;2.78;;;2.10;;
53594;SDS011;39479;45.720;11.310;2024-02-28T09:45:30;3.70;;;3.28;;
53594;SDS011;39479;45.720;11.310;2024-02-28T09:48:00;1.90;;;1.80;;
53594;SDS011;39479;45.720;11.310;2024-02-28T09:50:28;3.22;;;2.40;;
53594;SDS011;39479;45.720;11.310;2024-02-28T09:52:54;3.90;;;2.83;;
53594;SDS011;39479;45.720;11.310;2024-02-28T09:55:20;8.95;;;7.35;;
53594;SDS011;39479;45.720;11.310;2024-02-28T09:57:49;8.60;;;7.28;;
53594;SDS011;39479;45.720;11.310;2024-02-28T10:00:17;10.13;;;7.57;;
53594;SDS011;39479;45.720;11.310;2024-02-28T10:02:46;11.18;;;6.78;;
53594;SDS011;39479;45.720;11.310;2024-02-28T10:05:15;7.28;;;6.05;;
53594;SDS011;39479;45.720;11.310;2024-02-28T10:07:43;10.25;;;6.88;;
53594;SDS011;39479;45.720;11.310;2024-02-28T10:10:09;10.18;;;7.68;;
53594;SDS011;39479;45.720;11.310;2024-02-28T10:12:40;9.52;;;8.07;;
53594;SDS011;39479;45.720;11.310;2024-02-28T10:15:06;8.80;;;7.72;;
53594;SDS011;39479;45.720;11.310;2024-02-28T10:17:34;9.27;;;7.32;;
53594;SDS011;39479;45.720;11.310;2024-02-28T10:20:01;8.05;;;7.15;;
53594;SDS011;39479;45.720;11.310;2024-02-28T10:22:33;11.13;;;8.77;;
53594;SDS011;39479;45.720;11.310;2024-02-28T10:24:59;7.57;;;4.65;;
53594;SDS011;39479;45.720;11.310;2024-02-28T10:27:25;4.68;;;3.00;;
53594;SDS011;39479;45.720;11.310;2024-02-28T10:29:51;4.40;;;3.42;;
53594;SDS011;39479;45.720;11.310;2024-02-28T10:32:18;10.77;;;7.50;;
53594;SDS011;39479;45.720;11.310;2024-02-28T10:34:44;14.60;;;11.63;;
53594;SDS011;39479;45.720;11.310;2024-02-28T10:37:11;10.05;;;6.88;;
53594;SDS011;39479;45.720;11.310;2024-02-28T10:39:38;9.18;;;7.05;;
53594;SDS011;39479;45.720;11.310;2024-02-28T10:42:04;10.45;;;7.72;;
53594;SDS011;39479;45.720;11.310;2024-02-28T10:44:32;12.07;;;8.77;;
53594;SDS011;39479;45.720;11.310;2024-02-28T10:47:00;11.02;;;9.48;;
53594;SDS011;39479;45.720;11.310;2024-02-28T10:49:27;8.85;;;7.95;;
53594;SDS011;39479;45.720;11.310;2024-02-28T10:51:54;8.23;;;7.32;;
53594;SDS011;39479;45.720;11.310;2024-02-28T10:54:22;9.35;;;5.75;;
53594;SDS011;39479;45.720;11.310;2024-02-28T10:56:50;9.20;;;8.20;;
53594;SDS011;39479;45.720;11.310;2024-02-28T10:59:17;6.32;;;5.25;;
53594;SDS011;39479;45.720;11.310;2024-02-28T11:01:43;6.75;;;5.18;;
53594;SDS011;39479;45.720;11.310;2024-02-28T11:04:10;9.32;;;7.22;;
53594;SDS011;39479;45.720;11.310;2024-02-28T11:06:58;7.00;;;5.43;;
53594;SDS011;39479;45.720;11.310;2024-02-28T11:09:24;6.65;;;5.13;;
53594;SDS011;39479;45.720;11.310;2024-02-28T11:11:51;10.38;;;6.70;;
53594;SDS011;39479;45.720;11.310;2024-02-28T11:14:17;8.40;;;5.65;;
53594;SDS011;39479;45.720;11.310;2024-02-28T11:16:47;8.35;;;5.78;;
53594;SDS011;39479;45.720;11.310;2024-02-28T11:19:20;6.70;;;4.28;;
53594;SDS011;39479;45.720;11.310;2024-02-28T11:21:53;4.95;;;3.47;;
53594;SDS011;39479;45.720;11.310;2024-02-28T11:24:28;5.68;;;3.70;;
53594;SDS011;39479;45.720;11.310;2024-02-28T11:26:55;4.72;;;3.50;;
53594;SDS011;39479;45.720;11.310;2024-02-28T11:29:25;4.75;;;3.35;;
53594;SDS011;39479;45.720;11.310;2024-02-28T11:31:52;4.97;;;3.38;;
53594;SDS011;39479;45.720;11.310;2024-02-28T11:34:18;4.93;;;2.88;;
53594;SDS011;39479;45.720;11.310;2024-02-28T11:36:49;3.10;;;2.70;;
53594;SDS011;39479;45.720;11.310;2024-02-28T11:39:15;4.40;;;2.17;;
53594;SDS011;39479;45.720;11.310;2024-02-28T11:41:42;2.78;;;1.63;;
53594;SDS011;39479;45.720;11.310;2024-02-28T11:44:11;2.72;;;2.10;;
53594;SDS011;39479;45.720;11.310;2024-02-28T11:46:37;1.75;;;1.65;;
53594;SDS011;39479;45.720;11.310;2024-02-28T11:49:03;2.17;;;1.92;;
53594;SDS011;39479;45.720;11.310;2024-02-28T11:51:30;3.17;;;2.50;;
53594;SDS011;39479;45.720;11.310;2024-02-28T11:53:57;2.08;;;1.90;;
53594;SDS011;39479;45.720;11.310;2024-02-28T11:56:23;1.67;;;1.58;;
53594;SDS011;39479;45.720;11.310;2024-02-28T11:58:50;3.30;;;2.50;;
53594;SDS011;39479;45.720;11.310;2024-02-28T12:01:16;2.38;;;2.17;;
53594;SDS011;39479;45.720;11.310;2024-02-28T12:03:44;32.55;;;16.42;;
53594;SDS011;39479;45.720;11.310;2024-02-28T12:06:13;17.48;;;11.60;;
53594;SDS011;39479;45.720;11.310;2024-02-28T12:08:40;7.03;;;4.47;;
53594;SDS011;39479;45.720;11.310;2024-02-28T12:11:08;7.18;;;4.53;;
53594;SDS011;39479;45.720;11.310;2024-02-28T12:13:36;5.38;;;3.20;;
53594;SDS011;39479;45.720;11.310;2024-02-28T12:16:02;3.22;;;2.53;;
53594;SDS011;39479;45.720;11.310;2024-02-28T12:18:29;9.63;;;6.88;;
53594;SDS011;39479;45.720;11.310;2024-02-28T12:20:55;10.00;;;8.07;;
53594;SDS011;39479;45.720;11.310;2024-02-28T12:23:22;8.80;;;7.82;;
53594;SDS011;39479;45.720;11.310;2024-02-28T12:25:48;17.10;;;15.23;;
53594;SDS011;39479;45.720;11.310;2024-02-28T12:28:14;9.98;;;7.65;;
53594;SDS011;39479;45.720;11.310;2024-02-28T12:30:41;8.05;;;7.10;;
53594;SDS011;39479;45.720;11.310;2024-02-28T12:33:10;10.38;;;8.05;;
53594;SDS011;39479;45.720;11.310;2024-02-28T12:35:39;8.18;;;7.25;;
53594;SDS011;39479;45.720;11.310;2024-02-28T12:38:06;8.80;;;5.47;;
53594;SDS011;39479;45.720;11.310;2024-02-28T12:40:32;7.25;;;6.07;;
53594;SDS011;39479;45.720;11.310;2024-02-28T12:42:58;9.73;;;6.80;;
53594;SDS011;39479;45.720;11.310;2024-02-28T12:45:25;8.05;;;6.72;;
53594;SDS011;39479;45.720;11.310;2024-02-28T12:47:51;9.48;;;6.93;;
53594;SDS011;39479;45.720;11.310;2024-02-28T12:50:18;7.68;;;6.07;;
53594;SDS011;39479;45.720;11.310;2024-02-28T12:52:46;8.88;;;5.97;;
53594;SDS011;39479;45.720;11.310;2024-02-28T12:55:15;8.38;;;5.25;;
53594;SDS011;39479;45.720;11.310;2024-02-28T12:57:41;6.32;;;3.75;;
53594;SDS011;39479;45.720;11.310;2024-02-28T13:00:07;4.28;;;3.88;;
53594;SDS011;39479;45.720;11.310;2024-02-28T13:02:33;3.60;;;3.30;;
53594;SDS011;39479;45.720;11.310;2024-02-28T13:04:59;4.93;;;3.65;;
53594;SDS011;39479;45.720;11.310;2024-02-28T13:07:25;4.38;;;2.80;;
53594;SDS011;39479;45.720;11.310;2024-02-28T13:09:52;3.10;;;2.80;;
53594;SDS011;39479;45.720;11.310;2024-02-28T13:12:18;4.63;;;3.40;;
53594;SDS011;39479;45.720;11.310;2024-02-28T13:14:45;5.43;;;3.65;;
53594;SDS011;39479;45.720;11.310;2024-02-28T13:17:11;5.07;;;3.70;;
53594;SDS011;39479;45.720;11.310;2024-02-28T13:19:37;3.92;;;3.05;;
53594;SDS011;39479;45.720;11.310;2024-02-28T13:22:03;4.00;;;3.05;;
53594;SDS011;39479;45.720;11.310;2024-02-28T13:24:29;5.03;;;3.05;;
53594;SDS011;39479;45.720;11.310;2024-02-28T13:26:55;5.65;;;3.63;;
53594;SDS011;39479;45.720;11.310;2024-02-28T13:29:21;5.55;;;3.50;;
53594;SDS011;39479;45.720;11.310;2024-02-28T13:31:47;5.25;;;3.85;;
53594;SDS011;39479;45.720;11.310;2024-02-28T13:34:13;5.70;;;4.47;;
53594;SDS011;39479;45.720;11.310;2024-02-28T13:36:39;5.68;;;4.90;;
53594;SDS011;39479;45.720;11.310;2024-02-28T13:39:09;6.68;;;4.90;;
53594;SDS011;39479;45.720;11.310;2024-02-28T13:41:36;6.68;;;5.05;;
53594;SDS011;39479;45.720;11.310;2024-02-28T13:44:02;5.15;;;3.70;;
53594;SDS011;39479;45.720;11.310;2024-02-28T13:46:28;13.65;;;9.30;;
53594;SDS011;39479;45.720;11.310;2024-02-28T13:48:55;13.02;;;8.65;;
53594;SDS011;39479;45.720;11.310;2024-02-28T13:51:21;5.65;;;3.97;;
53594;SDS011;39479;45.720;11.310;2024-02-28T13:53:48;6.03;;;3.60;;
53594;SDS011;39479;45.720;11.310;2024-02-28T13:56:17;12.00;;;10.10;;
53594;SDS011;39479;45.720;11.310;2024-02-28T13:58:43;6.63;;;4.20;;
53594;SDS011;39479;45.720;11.310;2024-02-28T14:01:09;7.43;;;4.60;;
53594;SDS011;39479;45.720;11.310;2024-02-28T14:03:35;8.48;;;5.82;;
53594;SDS011;39479;45.720;11.310;2024-02-28T14:06:02;9.25;;;7.72;;
53594;SDS011;39479;45.720;11.310;2024-02-28T14:08:28;4.68;;;3.10;;
53594;SDS011;39479;45.720;11.310;2024-02-28T14:10:54;11.68;;;8.93;;
53594;SDS011;39479;45.720;11.310;2024-02-28T14:13:20;15.43;;;13.00;;
53594;SDS011;39479;45.720;11.310;2024-02-28T14:15:46;13.77;;;9.85;;
53594;SDS011;39479;45.720;11.310;2024-02-28T14:18:12;13.70;;;11.77;;
53594;SDS011;39479;45.720;11.310;2024-02-28T14:20:38;13.85;;;9.52;;
53594;SDS011;39479;45.720;11.310;2024-02-28T14:23:04;15.15;;;8.88;;
53594;SDS011;39479;45.720;11.310;2024-02-28T14:25:30;14.48;;;8.98;;
53594;SDS011;39479;45.720;11.310;2024-02-28T14:27:56;11.38;;;8.85;;
53594;SDS011;39479;45.720;11.310;2024-02-28T14:30:22;10.15;;;8.38;;